NCAR-RAP Real-Time Weather Data

Output produced by METARs form (08 May 2021  16:19 UTC)
found at http://weather.rap.ucar.edu/surface/
 
KTUS 081553Z 00000KT 10SM CLR 25/M04 A2996 RMK AO2 SLP100 T02501039
KTUS 081453Z 00000KT 10SM CLR 23/M05 A2996 RMK AO2 SLP099 T02331050 51016
KTUS 081353Z 00000KT 10SM CLR 19/M06 A2995 RMK AO2 SLP097 T01891056 $
KTUS 081253Z 00000KT 10SM CLR 17/M07 A2992 RMK AO2 SLP089 T01721072 $
KTUS 081153Z 18005KT 10SM CLR 18/M09 A2990 RMK AO2 SLP082 T01781089 10256 20178 53003 $
KTUS 081053Z 18003KT 10SM CLR 20/M08 A2990 RMK AO2 SLP078 T02001078 $
KTUS 080953Z 00000KT 10SM CLR 18/M04 A2989 RMK AO2 SLP077 T01831044
KTUS 080853Z 16004KT 10SM CLR 20/M04 A2990 RMK AO2 SLP076 T02001044 58004
KTUS 080753Z 16004KT 10SM CLR 22/M05 A2991 RMK AO2 SLP079 T02171050
KTUS 080653Z 28006KT 10SM CLR 23/M03 A2991 RMK AO2 SLP081 T02331028 403560178
KTUS 080553Z 00000KT 10SM CLR 26/M06 A2991 RMK AO2 SLP080 T02561061 10344 20250 51010
KTUS 080453Z 27007KT 10SM CLR 26/M07 A2990 RMK AO2 SLP077 T02611072
KTUS 080353Z 26006KT 10SM CLR 27/M09 A2990 RMK AO2 SLP077 T02721094
KTUS 080253Z 26007KT 10SM CLR 29/M11 A2988 RMK AO2 SLP071 T02891106 53002
KTUS 080153Z 24007KT 10SM CLR 32/M15 A2986 RMK AO2 SLP066 T03171150
KTUS 080053Z 26010G20KT 10SM CLR 33/M19 A2987 RMK AO2 SLP070 T03281194
KTUS 072353Z 26013G24KT 10SM CLR 34/M17 A2987 RMK AO2 PK WND 25029/2320 SLP068 T03441172 10356 20311 56016
KTUS 072253Z 27012G23KT 230V300 10SM CLR 35/M14 A2988 RMK AO2 PK WND 27026/2211 SLP069 T03501144
KTUS 072153Z 25015G21KT 10SM CLR 35/M11 A2990 RMK AO2 SLP075 T03501111
KTUS 072053Z 26014G19KT 10SM CLR 35/M11 A2992 RMK AO2 SLP083 T03501111 58025
KTUS 071953Z 28008G16KT 230V330 10SM CLR 34/M09 A2995 RMK AO2 SLP091 T03391089
KTUS 071853Z 32007G14KT 290V360 10SM CLR 33/M07 A2998 RMK AO2 SLP102 T03331067
KTUS 071753Z 00000KT 10SM CLR 31/M06 A3000 RMK AO2 SLP110 T03111061 10311 20183 58009
KTUS 071653Z 13003KT 10SM CLR 29/M02 A3002 RMK AO2 SLP117 T02891022
KTUS 071553Z 00000KT 10SM CLR 26/M01 A3003 RMK AO2 SLP122 T02611011
KTUS 071453Z 20006KT 10SM CLR 24/M02 A3003 RMK AO2 SLP122 T02391017 53007
KTUS 071353Z 15005KT 10SM CLR 20/M02 A3003 RMK AO2 SLP122 T02001017
KTUS 071253Z 14009KT 10SM CLR 19/M02 A3001 RMK AO2 SLP115 T01941017
KTUS 071153Z 15005KT 10SM CLR 18/M01 A3001 RMK AO2 SLP116 T01831006 10261 20178 56001
KTUS 071053Z 14006KT 10SM CLR 19/M01 A3001 RMK AO2 SLP115 T01891006
KTUS 070953Z 14006KT 10SM CLR 21/M01 A3000 RMK AO2 SLP112 T02061011
KTUS 070853Z 14007KT 10SM CLR 22/M01 A3001 RMK AO2 SLP113 T02221006 58003
KTUS 070753Z 15005KT 10SM CLR 23/M01 A3002 RMK AO2 SLP117 T02331006
KTUS 070653Z 00000KT 10SM CLR 25/00 A3003 RMK AO2 SLP118 T02500000 403720167
KTUS 070553Z 21004KT 10SM CLR 26/01 A3002 RMK AO2 SLP118 T02610006 10361 20261 51021
KTUS 070453Z 27008KT 10SM CLR 28/00 A3001 RMK AO2 SLP112 T02830000
KTUS 070353Z 27010KT 10SM CLR 30/M02 A2998 RMK AO2 SLP103 T03001022
KTUS 070253Z 29008G16KT 10SM CLR 33/M03 A2996 RMK AO2 SLP096 T03281033 53009
KTUS 070153Z 31008KT 10SM CLR 34/M03 A2994 RMK AO2 SLP090 T03441033
KTUS 070053Z 27011G17KT 10SM CLR 36/M03 A2992 RMK AO2 SLP086 T03561028
KTUS 062353Z 29011G18KT 10SM CLR 36/M03 A2993 RMK AO2 SLP088 T03611033 10372 20311 56020
KTUS 062253Z AUTO 33011G16KT 10SM CLR 37/M03 A2994 RMK AO2 SLP090 T03671033
KTUS 062153Z 31006G18KT 10SM CLR 36/M03 A2996 RMK AO2 SLP098 T03611028
KTUS 062053Z 24007G19KT 220V290 10SM CLR 36/M03 A2999 RMK AO2 SLP106 T03611028 58024
KTUS 061953Z 26008KT 10SM CLR 35/M02 A3002 RMK AO2 SLP116 T03501022
KTUS 061853Z 29005KT 10SM CLR 33/M04 A3005 RMK AO2 SLP125 T03331039
KTUS 061753Z VRB03KT 10SM CLR 31/M03 A3007 RMK AO2 SLP133 T03111028 10317 20167 58005
KTUS 061653Z 00000KT 10SM CLR 30/M01 A3008 RMK AO2 SLP134 T03001011